Time;durP1;ratioP1;P1;durP2;ratioP2;P2;SDS_P1;SDS_P2;PMS_P1;PMS_P2;Temp;Humidity;BMP_temperature;BMP_pressure;BME280_temperature;BME280_humidity;BME280_pressure;Samples;Min_cycle;Max_cycle;Signal;HPM_P1;HPM_P2
2021/12/08 00:00:25;;;;;;;4.40;2.67;;;;;;;1.89;100.00;98074.88;4975191;28;20408;-89
2021/12/08 00:02:51;;;;;;;4.40;3.03;;;;;;;0.03;100.00;97763.69;4959479;28;20423;-88
2021/12/08 00:05:18;;;;;;;4.43;2.37;;;;;;;1.64;100.00;98030.25;4974791;28;20879;-88
2021/12/08 00:07:45;;;;;;;4.50;3.10;;;;;;;1.35;100.00;97975.41;4976568;28;20668;-88
2021/12/08 00:10:29;;;;;;;3.83;2.30;;;;;;;0.54;100.00;97865.34;4959060;28;20451;-87
2021/12/08 00:13:03;;;;;;;5.07;3.23;;;;;;;-0.84;100.00;97643.47;4976364;28;20399;-87
2021/12/08 00:15:31;;;;;;;5.20;3.03;;;;;;;1.25;100.00;97986.50;4980667;28;20403;-89
2021/12/08 00:17:58;;;;;;;3.00;2.10;;;;;;;1.91;100.00;98113.25;4959231;28;20492;-89
2021/12/08 00:20:27;;;;;;;4.57;3.03;;;;;;;2.03;100.00;98118.94;4974732;28;20773;-89
2021/12/08 00:22:55;;;;;;;3.50;2.60;;;;;;;1.17;100.00;98003.53;4975875;28;20410;-88
2021/12/08 00:25:20;;;;;;;3.83;2.37;;;;;;;1.54;100.00;98052.97;4958865;28;20419;-89
2021/12/08 00:27:46;;;;;;;3.77;2.87;;;;;;;-0.11;100.00;97789.41;4975539;28;20510;-88
2021/12/08 00:30:11;;;;;;;5.23;3.07;;;;;;;-1.51;100.00;97541.81;4975663;28;20204;-88
2021/12/08 00:32:36;;;;;;;4.80;3.17;;;;;;;0.96;100.00;97951.63;4974755;28;20179;-89
2021/12/08 00:35:06;;;;;;;4.00;2.80;;;;;;;1.87;100.00;98113.88;4974459;28;20184;-89
2021/12/08 00:37:32;;;;;;;5.53;3.20;;;;;;;-0.21;100.00;97769.72;4970172;28;20645;-89
2021/12/08 00:39:58;;;;;;;3.53;2.40;;;;;;;-0.43;100.00;97739.41;4974889;28;20462;-89
2021/12/08 00:42:23;;;;;;;4.87;3.03;;;;;;;-0.65;100.00;97712.44;4974830;28;20176;-89
2021/12/08 00:44:50;;;;;;;4.57;3.00;;;;;;;-0.60;100.00;97693.69;4975863;28;20179;-89
2021/12/08 00:47:16;;;;;;;3.97;2.37;;;;;;;0.31;100.00;97835.78;4958447;28;20800;-88
2021/12/08 00:49:42;;;;;;;6.03;3.27;;;;;;;0.51;100.00;97840.28;4974772;28;20455;-89
2021/12/08 00:52:07;;;;;;;4.43;2.37;;;;;;;1.99;100.00;98124.50;4975306;28;20697;-88
2021/12/08 00:54:33;;;;;;;5.00;2.73;;;;;;;0.27;100.00;97824.81;4994510;28;20211;-89
2021/12/08 00:57:00;;;;;;;5.23;3.40;;;;;;;2.16;100.00;98158.75;4978250;28;20208;-89
2021/12/08 00:59:26;;;;;;;6.73;3.97;;;;;;;0.14;100.00;97811.59;4959676;28;20420;-89
2021/12/08 01:01:51;;;;;;;5.40;3.43;;;;;;;0.40;100.00;97852.13;4975150;28;20183;-89
2021/12/08 01:04:17;;;;;;;4.60;3.00;;;;;;;0.46;100.00;97867.41;4995066;28;20216;-88
2021/12/08 01:06:43;;;;;;;4.03;2.80;;;;;;;-0.52;100.00;97680.09;4980953;28;20362;-90
2021/12/08 01:09:10;;;;;;;4.63;2.93;;;;;;;-0.14;100.00;97746.97;4978900;28;20672;-89
2021/12/08 01:11:36;;;;;;;4.27;2.93;;;;;;;2.21;100.00;98170.72;4975171;28;20979;-90
2021/12/08 01:14:01;;;;;;;4.27;3.13;;;;;;;1.50;100.00;98014.53;4974316;28;20450;-90
2021/12/08 01:16:28;;;;;;;5.17;2.97;;;;;;;0.54;100.00;97875.31;4974624;28;20579;-90
2021/12/08 01:18:53;;;;;;;3.07;2.30;;;;;;;1.48;100.00;98016.09;4974856;28;20183;-89
2021/12/08 01:21:20;;;;;;;8.10;4.50;;;;;;;2.09;100.00;98122.59;4973684;28;20411;-89
2021/12/08 01:23:46;;;;;;;5.63;3.80;;;;;;;-1.12;100.00;97604.47;4974917;28;20176;-89
2021/12/08 01:26:12;;;;;;;6.60;4.23;;;;;;;2.27;100.00;98136.13;4976186;28;20465;-89
2021/12/08 01:28:38;;;;;;;5.87;4.03;;;;;;;-1.51;100.00;97466.56;4976821;28;20470;-90
2021/12/08 01:31:04;;;;;;;6.53;4.50;;;;;;;1.70;100.00;98048.06;4973841;28;20750;-89
2021/12/08 01:33:33;;;;;;;5.37;3.80;;;;;;;1.72;100.00;98026.56;4974353;28;20434;-91
2021/12/08 01:35:59;;;;;;;5.77;3.30;;;;;;;2.22;100.00;98142.50;4976926;28;20422;-90
2021/12/08 01:38:25;;;;;;;4.87;3.13;;;;;;;2.54;100.00;98140.88;4977652;28;20490;-89
2021/12/08 01:40:51;;;;;;;7.97;3.53;;;;;;;2.45;100.00;98145.38;4977623;28;20486;-90
2021/12/08 01:43:27;;;;;;;4.77;2.83;;;;;;;0.58;100.00;97865.59;4982319;28;20156;-89
2021/12/08 01:46:05;;;;;;;4.97;3.00;;;;;;;2.25;100.00;98136.81;4996286;28;20431;-87
2021/12/08 01:48:34;;;;;;;5.07;3.03;;;;;;;2.22;100.00;98124.16;4988175;28;20423;-91
2021/12/08 01:51:15;;;;;;;4.10;2.90;;;;;;;2.18;100.00;98127.25;4976856;28;20493;-89
2021/12/08 01:53:50;;;;;;;5.77;4.00;;;;;;;2.50;100.00;98167.31;4974579;28;20431;-89
2021/12/08 01:56:17;;;;;;;5.33;3.20;;;;;;;1.96;100.00;98067.81;4959294;28;20974;-89
2021/12/08 01:58:42;;;;;;;5.27;2.93;;;;;;;2.33;100.00;98135.59;4979898;28;20478;-88
2021/12/08 02:01:13;;;;;;;7.97;4.00;;;;;;;2.50;100.00;98169.81;4984467;28;20426;-91
2021/12/08 02:03:39;;;;;;;4.40;2.87;;;;;;;2.26;100.00;98118.53;4978712;28;20163;-90
2021/12/08 02:06:07;;;;;;;4.73;2.60;;;;;;;1.45;100.00;98015.91;4971362;28;20426;-89
2021/12/08 02:08:33;;;;;;;5.30;3.03;;;;;;;-0.87;100.00;97586.16;4985686;28;20411;-89
2021/12/08 02:11:01;;;;;;;3.53;2.80;;;;;;;-0.95;100.00;97589.81;4987088;28;20451;-90
2021/12/08 02:13:30;;;;;;;3.93;2.60;;;;;;;1.34;100.00;97992.00;4968698;28;20408;-90
2021/12/08 02:15:56;;;;;;;4.27;2.60;;;;;;;-0.12;100.00;97746.28;4987027;28;20420;-90
2021/12/08 02:18:21;;;;;;;4.07;2.73;;;;;;;-1.45;100.00;97486.72;4986146;28;20450;-89
2021/12/08 02:20:49;;;;;;;3.57;2.60;;;;;;;2.53;100.00;98197.47;4968282;28;20207;-90
2021/12/08 02:23:17;;;;;;;4.50;3.07;;;;;;;0.35;100.00;97811.19;4985871;28;20199;-91
2021/12/08 02:25:44;;;;;;;4.57;2.47;;;;;;;-1.39;100.00;97483.00;4985171;28;20522;-90
2021/12/08 02:28:10;;;;;;;7.30;2.90;;;;;;;-0.55;100.00;97649.28;4970657;28;20411;-89
2021/12/08 02:30:54;;;;;;;4.40;2.47;;;;;;;2.37;100.00;98144.97;4989928;28;20533;-88
2021/12/08 02:47:14;;;;;;;4.20;2.80;;;;;;;2.67;100.00;98160.75;4988391;28;20528;-89
2021/12/08 02:49:40;;;;;;;3.57;2.30;;;;;;;1.68;100.00;98012.19;4988625;28;20466;-90
2021/12/08 02:52:08;;;;;;;3.80;2.53;;;;;;;2.92;100.00;98216.25;4985273;28;20422;-90
2021/12/08 02:54:45;;;;;;;4.13;2.70;;;;;;;2.45;100.00;98141.25;4989861;28;20164;-89
2021/12/08 02:57:12;;;;;;;3.37;2.50;;;;;;;2.90;100.00;98221.19;4984271;28;20419;-88
2021/12/08 02:59:40;;;;;;;3.67;2.60;;;;;;;1.66;100.00;98028.69;4985785;28;20403;-90
2021/12/08 03:02:08;;;;;;;3.40;2.70;;;;;;;0.22;100.00;97768.13;5000016;28;20504;-88
2021/12/08 03:04:33;;;;;;;7.40;3.60;;;;;;;2.62;100.00;98170.50;4997791;28;20438;-91
2021/12/08 03:07:01;;;;;;;4.80;2.07;;;;;;;2.38;100.00;98137.56;4986086;28;20458;-89
2021/12/08 03:09:26;;;;;;;8.97;4.13;;;;;;;0.95;100.00;97895.94;4964646;28;20207;-89
2021/12/08 03:11:56;;;;;;;3.67;2.00;;;;;;;0.26;100.00;97780.81;4981355;28;20438;-89
2021/12/08 03:14:21;;;;;;;3.37;2.27;;;;;;;2.94;100.00;98245.56;4980374;28;20183;-88
2021/12/08 03:16:51;;;;;;;3.83;2.67;;;;;;;-0.89;100.00;97596.78;4959767;28;20502;-88
2021/12/08 03:19:20;;;;;;;7.27;2.80;;;;;;;0.02;100.00;97749.56;4977075;28;20168;-90
2021/12/08 03:21:46;;;;;;;7.07;3.07;;;;;;;0.63;100.00;97850.94;4977908;28;20410;-90
2021/12/08 03:24:21;;;;;;;5.83;3.27;;;;;;;0.98;100.00;97921.03;4976619;28;20427;-90
2021/12/08 03:26:57;;;;;;;3.37;2.40;;;;;;;1.42;100.00;98007.41;4979269;28;20171;-89
2021/12/08 03:32:28;;;;;;;3.53;2.40;;;;;;;3.00;100.00;98272.53;4946982;29;20421;-89
2021/12/08 03:34:55;;;;;;;2.20;1.90;;;;;;;3.10;100.00;98278.91;4940418;29;20941;-90
2021/12/08 03:37:31;;;;;;;3.97;2.50;;;;;;;-0.39;100.00;97680.06;4940292;29;20981;-91
2021/12/08 03:39:58;;;;;;;3.53;2.23;;;;;;;2.65;100.00;98214.75;4939134;29;20413;-90
2021/12/08 03:42:27;;;;;;;4.60;2.93;;;;;;;0.21;100.00;97802.06;4922171;29;20426;-91
2021/12/08 03:44:56;;;;;;;4.37;3.27;;;;;;;2.27;100.00;98146.09;4938582;29;20413;-90
2021/12/08 03:47:27;;;;;;;3.83;2.50;;;;;;;1.15;100.00;97969.31;4932639;29;20536;-90
2021/12/08 03:49:54;;;;;;;4.33;2.67;;;;;;;1.63;100.00;98013.56;4946216;29;20457;-91
2021/12/08 03:52:56;;;;;;;3.37;2.23;;;;;;;3.20;100.00;98293.59;4945035;29;20488;-91
2021/12/08 03:55:22;;;;;;;4.23;3.00;;;;;;;2.75;100.00;98217.84;4855158;29;20441;-90
2021/12/08 03:57:47;;;;;;;5.43;2.80;;;;;;;2.81;100.00;98247.31;4882248;29;20504;-90
2021/12/08 04:00:17;;;;;;;3.33;2.40;;;;;;;1.88;100.00;98074.03;4841489;29;20192;-91
2021/12/08 04:02:42;;;;;;;5.00;2.97;;;;;;;1.78;100.00;98065.19;4847852;29;20215;-91
2021/12/08 04:05:09;;;;;;;5.93;3.20;;;;;;;3.31;100.00;98315.06;4847235;29;20512;-90
2021/12/08 04:07:42;;;;;;;4.60;3.13;;;;;;;0.19;100.00;97793.69;4868930;29;20176;-91
2021/12/08 04:10:15;;;;;;;4.57;2.87;;;;;;;1.63;100.00;98021.91;4903516;29;20458;-93
2021/12/08 04:12:41;;;;;;;3.77;2.80;;;;;;;0.12;100.00;97758.38;4919143;29;20434;-88
2021/12/08 04:15:07;;;;;;;5.40;3.20;;;;;;;1.24;100.00;97972.31;4903309;29;20413;-89
2021/12/08 04:17:36;;;;;;;3.83;2.37;;;;;;;0.93;100.00;97909.09;4926034;29;20198;-89
2021/12/08 04:20:10;;;;;;;4.37;3.37;;;;;;;2.85;100.00;98211.72;4904301;29;20517;-91
2021/12/08 04:22:45;;;;;;;6.03;3.27;;;;;;;3.51;100.00;98325.38;4905072;29;20965;-92
2021/12/08 04:25:20;;;;;;;7.83;4.07;;;;;;;3.42;100.00;98316.50;4907722;29;20417;-90
2021/12/08 04:27:48;;;;;;;7.63;3.50;;;;;;;1.36;100.00;97958.06;4919462;29;20961;-91
2021/12/08 04:30:20;;;;;;;5.13;3.20;;;;;;;0.26;100.00;97763.38;4918866;29;20485;-91
2021/12/08 04:32:47;;;;;;;7.10;3.20;;;;;;;0.43;100.00;97812.47;4903199;29;20422;-91
2021/12/08 04:35:15;;;;;;;5.47;3.40;;;;;;;0.38;100.00;97784.00;4903472;29;20446;-90
2021/12/08 04:37:46;;;;;;;5.77;3.63;;;;;;;2.59;100.00;98159.47;4902786;29;20419;-90
2021/12/08 04:43:19;;;;;;;6.37;3.10;;;;;;;3.60;100.00;98324.97;4919263;29;20433;-90
2021/12/08 04:46:05;;;;;;;7.57;4.10;;;;;;;1.98;100.00;98056.28;4903064;29;20409;-90
2021/12/08 04:51:20;;;;;;;6.57;3.83;;;;;;;0.48;100.00;97806.13;4927130;29;20500;-91
2021/12/08 05:10:06;;;;;;;23.17;11.37;;;;;;;3.50;100.00;98340.28;4997499;28;20459;-90
2021/12/08 05:12:35;;;;;;;20.20;10.37;;;;;;;3.08;100.00;98277.97;4981300;28;20415;-92
2021/12/08 05:15:29;;;;;;;31.27;12.40;;;;;;;3.17;100.00;98294.31;4968310;28;20464;-91
2021/12/08 05:18:17;;;;;;;14.60;7.47;;;;;;;3.42;100.00;98347.38;4958894;29;20435;-90
2021/12/08 05:20:56;;;;;;;19.20;8.33;;;;;;;2.89;100.00;98271.06;4927778;29;21043;-92
2021/12/08 05:23:38;;;;;;;11.93;6.60;;;;;;;3.20;100.00;98331.97;4957175;29;20491;-90
2021/12/08 05:26:09;;;;;;;54.03;23.97;;;;;;;3.42;100.00;98351.50;4940977;29;20420;-91
2021/12/08 05:28:35;;;;;;;9.83;4.57;;;;;;;1.75;100.00;98094.94;4941396;29;20428;-90
2021/12/08 05:31:10;;;;;;;42.60;22.70;;;;;;;2.68;100.00;98238.28;4962801;29;20487;-91
2021/12/08 05:33:38;;;;;;;15.87;7.83;;;;;;;2.71;100.00;98250.09;4956263;29;20414;-89
2021/12/08 05:36:04;;;;;;;10.67;4.93;;;;;;;3.21;100.00;98336.22;4935852;29;20449;-90
2021/12/08 05:38:31;;;;;;;9.30;5.80;;;;;;;2.17;100.00;98202.94;4921932;29;20483;-90
2021/12/08 05:41:07;;;;;;;11.73;6.47;;;;;;;-0.46;100.00;97735.13;4944230;29;20484;-90
2021/12/08 05:43:34;;;;;;;15.20;8.87;;;;;;;1.99;100.00;98135.34;4936742;29;20470;-91
2021/12/08 05:46:00;;;;;;;16.37;8.70;;;;;;;2.24;100.00;98200.00;4903237;29;20422;-91
2021/12/08 05:48:30;;;;;;;19.97;10.93;;;;;;;1.09;100.00;98019.66;4919156;29;20986;-91
2021/12/08 05:51:05;;;;;;;32.00;13.97;;;;;;;3.20;100.00;98371.13;4902634;29;20454;-92
2021/12/08 05:53:33;;;;;;;62.50;25.93;;;;;;;2.98;100.00;98301.56;4922383;28;20433;-90
2021/12/08 05:55:59;;;;;;;26.40;11.63;;;;;;;3.56;100.00;98425.66;4963620;28;20423;-90
2021/12/08 05:58:27;;;;;;;25.53;15.67;;;;;;;2.96;100.00;98338.13;4979498;28;20449;-90
2021/12/08 06:01:05;;;;;;;10.00;5.80;;;;;;;1.82;100.00;98128.56;4978292;28;20503;-90
2021/12/08 06:03:31;;;;;;;10.90;5.90;;;;;;;2.37;100.00;98203.25;4980145;28;20423;-92
2021/12/08 06:05:58;;;;;;;12.40;6.23;;;;;;;-0.32;100.00;97748.38;4961851;28;20439;-92
2021/12/08 06:08:27;;;;;;;14.03;7.60;;;;;;;-0.26;100.00;97749.59;4962351;28;20529;-91
2021/12/08 06:10:53;;;;;;;12.03;6.07;;;;;;;2.59;100.00;98246.91;4961966;28;20518;-91
2021/12/08 06:13:18;;;;;;;12.10;7.07;;;;;;;2.36;100.00;98196.53;4977583;28;20423;-91
2021/12/08 06:15:47;;;;;;;25.57;10.90;;;;;;;2.36;100.00;98236.47;4978776;28;20275;-89
2021/12/08 06:18:14;;;;;;;52.10;17.60;;;;;;;-0.26;100.00;97769.47;4966268;28;20172;-89
2021/12/08 06:20:40;;;;;;;18.27;9.17;;;;;;;-0.61;100.00;97736.72;4986481;28;20410;-91
2021/12/08 06:23:12;;;;;;;20.30;8.67;;;;;;;3.85;100.00;98505.69;4985155;28;20416;-91
2021/12/08 06:25:39;;;;;;;17.93;9.33;;;;;;;2.37;100.00;98208.25;4983232;28;20407;-89
2021/12/08 06:28:07;;;;;;;20.87;9.70;;;;;;;2.17;100.00;98192.94;4955333;28;20419;-89
2021/12/08 06:30:37;;;;;;;17.97;9.20;;;;;;;3.98;100.00;98498.06;4986275;28;20500;-91
2021/12/08 06:33:04;;;;;;;22.43;10.47;;;;;;;3.93;100.00;98506.97;4981014;28;20415;-90
2021/12/08 06:35:39;;;;;;;20.93;9.30;;;;;;;2.64;100.00;98253.88;4965386;28;20470;-89
2021/12/08 06:38:09;;;;;;;39.27;16.73;;;;;;;-0.02;100.00;97809.81;4962187;28;20788;-91
2021/12/08 06:40:42;;;;;;;30.03;14.60;;;;;;;2.02;100.00;98137.16;4976888;28;20458;-90
2021/12/08 06:43:14;;;;;;;28.90;14.67;;;;;;;0.31;100.00;97871.50;4976934;28;20480;-91
2021/12/08 06:45:44;;;;;;;18.00;7.97;;;;;;;0.11;100.00;97819.72;5056570;23;20498;-92
2021/12/08 06:48:16;;;;;;;27.47;10.93;;;;;;;1.89;100.00;98144.75;4987161;28;20419;-90
2021/12/08 06:50:52;;;;;;;27.60;11.37;;;;;;;2.44;100.00;98226.06;4984442;28;20446;-90
2021/12/08 06:53:19;;;;;;;25.10;10.90;;;;;;;0.65;100.00;97898.31;4979688;28;20411;-89
2021/12/08 06:55:54;;;;;;;24.40;12.07;;;;;;;1.61;100.00;98067.50;4976245;28;20396;-90
2021/12/08 06:58:24;;;;;;;20.77;9.63;;;;;;;0.89;100.00;97954.50;4972383;28;20510;-89
2021/12/08 07:03:49;;;;;;;26.00;13.10;;;;;;;0.23;100.00;97827.91;4985041;28;20458;-90
2021/12/08 07:09:13;;;;;;;25.33;12.63;;;;;;;4.47;100.00;98570.88;4990412;28;20458;-89
2021/12/08 07:11:41;;;;;;;20.17;10.53;;;;;;;1.01;100.00;97956.09;4983062;28;20412;-88
2021/12/08 07:14:07;;;;;;;32.97;14.80;;;;;;;2.97;100.00;98284.84;4968456;28;20400;-90
2021/12/08 07:16:38;;;;;;;28.37;13.93;;;;;;;2.70;100.00;98256.72;4971092;28;20414;-90
2021/12/08 07:19:23;;;;;;;22.17;10.60;;;;;;;4.28;100.00;98521.44;4975552;28;20172;-89
2021/12/08 07:21:50;;;;;;;23.47;11.37;;;;;;;-0.37;100.00;97724.88;4991584;28;20454;-89
2021/12/08 07:24:23;;;;;;;23.80;13.03;;;;;;;3.03;100.00;98304.31;4972757;28;20408;-89
2021/12/08 07:26:51;;;;;;;21.93;10.40;;;;;;;0.41;100.00;97898.63;4973837;28;20410;-89
2021/12/08 07:29:22;;;;;;;22.07;10.23;;;;;;;-0.27;100.00;97762.78;4988194;28;20507;-88
2021/12/08 07:31:53;;;;;;;23.63;10.63;;;;;;;0.70;100.00;97879.53;4970960;28;20887;-88
2021/12/08 07:34:21;;;;;;;28.47;12.37;;;;;;;0.69;100.00;97885.31;4990892;28;20400;-89
2021/12/08 07:36:52;;;;;;;20.63;10.40;;;;;;;0.59;100.00;97897.22;4963614;28;20490;-89
2021/12/08 07:39:30;;;;;;;23.17;12.10;;;;;;;3.01;100.00;98316.75;4972093;28;20410;-88
2021/12/08 07:42:08;;;;;;;26.90;13.63;;;;;;;1.90;100.00;98114.00;4988338;28;20854;-90
2021/12/08 07:44:34;;;;;;;25.23;12.53;;;;;;;0.65;100.00;97888.38;4991817;28;20400;-89
2021/12/08 07:47:11;;;;;;;27.87;12.37;;;;;;;1.50;100.00;98089.34;4982169;28;20470;-89
2021/12/08 07:49:54;;;;;;;25.33;11.97;;;;;;;1.46;100.00;98050.03;4978392;28;20332;-89
2021/12/08 07:52:33;;;;;;;31.00;11.93;;;;;;;2.33;100.00;98205.50;4984390;28;20435;-89
2021/12/08 07:55:03;;;;;;;24.30;11.67;;;;;;;1.09;100.00;98003.84;4982676;28;20403;-89
2021/12/08 07:57:34;;;;;;;29.90;13.97;;;;;;;3.29;100.00;98319.13;4982745;28;20816;-89
2021/12/08 08:00:10;;;;;;;29.37;12.67;;;;;;;2.24;100.00;98150.94;4975123;28;20524;-90
2021/12/08 08:02:35;;;;;;;28.27;12.73;;;;;;;4.21;99.90;98479.28;4981905;28;20529;-89
2021/12/08 08:05:07;;;;;;;36.27;15.47;;;;;;;3.84;100.00;98386.34;4983095;28;20419;-87
2021/12/08 08:07:33;;;;;;;35.53;16.30;;;;;;;0.98;99.24;97907.72;4970679;28;20259;-88
2021/12/08 08:10:01;;;;;;;31.63;14.20;;;;;;;0.92;99.93;97893.28;4986022;28;20475;-89
2021/12/08 08:12:32;;;;;;;29.50;12.10;;;;;;;4.28;100.00;98493.00;4991227;28;20203;-90
2021/12/08 08:15:00;;;;;;;33.43;16.90;;;;;;;0.46;100.00;97806.81;4971304;28;20411;-91
2021/12/08 08:17:35;;;;;;;27.43;14.03;;;;;;;4.79;99.28;98596.00;4989561;28;20455;-87
2021/12/08 08:20:07;;;;;;;37.60;16.80;;;;;;;2.29;99.26;98128.72;4985238;28;20422;-87
2021/12/08 08:22:33;;;;;;;34.30;14.23;;;;;;;1.10;99.02;97921.69;4966236;28;20456;-87
2021/12/08 08:25:02;;;;;;;32.40;14.43;;;;;;;3.50;99.51;98333.63;4981183;28;20411;-88
2021/12/08 08:27:28;;;;;;;31.33;13.80;;;;;;;0.92;99.29;97960.53;4963401;28;20453;-87
2021/12/08 08:29:56;;;;;;;33.60;16.70;;;;;;;4.56;100.00;98537.13;4987490;28;20459;-89
2021/12/08 08:32:29;;;;;;;34.00;17.90;;;;;;;1.08;100.00;97937.34;4979494;28;20400;-88
2021/12/08 08:35:07;;;;;;;36.20;16.00;;;;;;;3.65;99.41;98371.13;4992213;28;20432;-88
2021/12/08 08:37:33;;;;;;;36.40;17.60;;;;;;;4.98;100.00;98607.84;4968794;28;20486;-88
2021/12/08 08:40:04;;;;;;;29.50;15.00;;;;;;;4.85;100.00;98571.25;4979163;28;20408;-88
2021/12/08 08:42:33;;;;;;;23.57;9.73;;;;;;;2.61;99.36;98190.41;4961383;28;20562;-89
2021/12/08 08:45:09;;;;;;;37.60;15.87;;;;;;;3.55;98.55;98332.22;4978093;28;20822;-88
2021/12/08 08:47:59;;;;;;;27.70;13.27;;;;;;;2.51;99.42;98124.09;4976701;28;20474;-89
2021/12/08 08:50:51;;;;;;;25.33;13.07;;;;;;;4.56;99.46;98461.09;4977106;28;20479;-89
2021/12/08 08:53:19;;;;;;;24.90;11.67;;;;;;;0.79;99.94;97821.16;4986373;28;20514;-90
2021/12/08 08:55:55;;;;;;;29.80;12.03;;;;;;;5.12;100.00;98561.78;4984739;28;20435;-87
2021/12/08 08:58:26;;;;;;;35.47;14.97;;;;;;;5.24;98.98;98552.38;4961288;28;20415;-87
2021/12/08 09:01:11;;;;;;;26.17;10.40;;;;;;;4.72;99.05;98479.47;4956767;28;20956;-88
2021/12/08 09:03:46;;;;;;;27.90;12.40;;;;;;;4.84;99.44;98519.38;4961313;28;20419;-87
2021/12/08 09:06:18;;;;;;;26.67;13.60;;;;;;;4.98;99.77;98588.66;4962599;28;20438;-88
2021/12/08 09:08:44;;;;;;;29.93;14.00;;;;;;;4.34;100.00;98508.38;4961961;28;20974;-90
2021/12/08 09:11:15;;;;;;;32.93;15.00;;;;;;;2.27;99.98;98136.13;4977484;28;20416;-88
2021/12/08 09:13:53;;;;;;;33.77;15.37;;;;;;;3.12;99.01;98309.84;4963151;28;20438;-88
2021/12/08 09:16:24;;;;;;;43.30;19.93;;;;;;;0.85;99.01;97922.75;4969036;28;20427;-88
2021/12/08 09:19:04;;;;;;;33.07;15.13;;;;;;;1.67;99.33;98038.78;4977761;28;20415;-88
2021/12/08 09:21:48;;;;;;;27.03;12.67;;;;;;;1.61;100.00;98035.94;4960232;28;20442;-88
2021/12/08 09:24:39;;;;;;;39.83;15.90;;;;;;;3.81;100.00;98401.19;4959718;28;20435;-87
2021/12/08 09:27:09;;;;;;;26.03;11.90;;;;;;;2.19;100.00;98138.97;4976587;28;20411;-88
2021/12/08 09:29:45;;;;;;;29.90;13.57;;;;;;;1.26;99.49;97912.59;4975065;28;20459;-87
2021/12/08 09:32:19;;;;;;;30.50;13.10;;;;;;;5.86;98.03;98568.03;4977068;28;20411;-90
2021/12/08 09:34:57;;;;;;;33.27;17.43;;;;;;;5.61;95.45;98568.47;4976964;28;20423;-87
2021/12/08 09:37:25;;;;;;;40.87;18.33;;;;;;;4.49;96.16;98339.63;4963734;28;20467;-88
2021/12/08 09:39:56;;;;;;;41.07;18.77;;;;;;;6.09;96.21;98559.97;4977996;28;20418;-87
2021/12/08 09:42:34;;;;;;;28.77;14.87;;;;;;;5.74;94.16;98467.00;4976626;28;20418;-87
2021/12/08 09:45:05;;;;;;;34.87;14.40;;;;;;;6.14;93.75;98537.56;4976974;28;20419;-88
2021/12/08 09:47:31;;;;;;;31.97;15.50;;;;;;;4.71;94.45;98311.47;4959774;28;20478;-88
2021/12/08 09:49:57;;;;;;;36.23;16.87;;;;;;;5.80;95.94;98517.47;4978168;28;20455;-89
2021/12/08 09:52:27;;;;;;;36.03;16.57;;;;;;;2.73;94.48;97973.72;4977362;28;20252;-88
2021/12/08 09:54:55;;;;;;;31.93;13.07;;;;;;;3.06;93.16;98034.53;4964056;28;20422;-89
2021/12/08 09:57:21;;;;;;;27.43;13.13;;;;;;;2.64;94.03;97978.22;4977845;28;20431;-90
2021/12/08 09:59:47;;;;;;;32.57;16.33;;;;;;;5.96;93.58;98535.03;4971940;28;20407;-88
2021/12/08 10:02:18;;;;;;;30.23;14.07;;;;;;;5.72;94.98;98531.31;4955974;28;20296;-89
2021/12/08 10:04:44;;;;;;;29.07;12.00;;;;;;;3.90;95.08;98223.94;4981458;28;20427;-89
2021/12/08 10:07:10;;;;;;;30.13;14.70;;;;;;;5.95;94.61;98548.41;4973550;28;20510;-88
2021/12/08 10:09:37;;;;;;;26.73;13.30;;;;;;;6.06;94.91;98584.06;4969565;28;20218;-87
2021/12/08 10:12:04;;;;;;;21.80;10.47;;;;;;;2.72;92.45;97967.03;4981138;28;20810;-90
2021/12/08 10:14:29;;;;;;;35.60;15.57;;;;;;;2.68;93.00;97985.97;4957551;28;20439;-89
2021/12/08 10:16:56;;;;;;;27.33;15.07;;;;;;;2.52;92.73;97918.56;4981472;28;20829;-89
2021/12/08 10:19:22;;;;;;;22.13;11.77;;;;;;;6.28;93.92;98552.50;4983258;28;20183;-90
2021/12/08 10:21:49;;;;;;;23.07;11.73;;;;;;;2.57;93.43;97912.16;4973649;28;20835;-92
2021/12/08 10:24:24;;;;;;;26.47;13.53;;;;;;;2.54;92.05;97931.09;4972620;28;20443;-91
2021/12/08 10:26:55;;;;;;;29.23;15.20;;;;;;;2.68;91.83;97888.56;4992493;28;20430;-89
2021/12/08 10:29:26;;;;;;;19.63;9.67;;;;;;;4.54;91.36;98263.03;4959620;28;20475;-90
2021/12/08 10:31:54;;;;;;;18.53;9.87;;;;;;;2.25;91.34;97863.06;4966333;28;20419;-90
2021/12/08 10:34:30;;;;;;;25.03;12.70;;;;;;;3.27;90.91;98070.63;4968187;28;20442;-88
2021/12/08 10:37:00;;;;;;;23.60;11.40;;;;;;;2.08;91.24;97848.03;4984367;28;20418;-89
2021/12/08 10:39:46;;;;;;;23.13;11.20;;;;;;;2.21;90.60;97873.69;4994589;28;20458;-90
2021/12/08 10:42:22;;;;;;;20.77;9.80;;;;;;;4.79;90.48;98340.28;4995376;28;20396;-91
2021/12/08 10:45:01;;;;;;;20.03;10.30;;;;;;;6.26;90.90;98545.69;4995105;28;20442;-91
2021/12/08 10:47:36;;;;;;;20.03;9.70;;;;;;;6.31;91.30;98580.28;5010942;28;20471;-90
2021/12/08 10:55:30;;;;;;;23.47;10.97;;;;;;;3.09;88.90;97978.06;4989460;28;20918;-88
2021/12/08 10:57:56;;;;;;;40.77;18.43;;;;;;;5.38;89.05;98306.34;4989127;28;20418;-90
2021/12/08 11:00:31;;;;;;;26.43;12.20;;;;;;;4.87;87.48;98193.59;4977003;28;20240;-90
2021/12/08 11:03:02;;;;;;;24.27;11.60;;;;;;;3.22;88.73;97895.38;4981114;28;20179;-92
2021/12/08 11:05:55;;;;;;;23.47;10.03;;;;;;;7.38;87.93;98535.59;5199430;23;20762;-91
2021/12/08 11:08:28;;;;;;;20.83;10.83;;;;;;;7.09;88.54;98547.78;4911737;29;20199;-89
2021/12/08 11:11:06;;;;;;;41.87;14.63;;;;;;;7.23;87.96;98547.50;4912503;29;20219;-89
2021/12/08 11:13:43;;;;;;;19.27;10.33;;;;;;;5.54;85.96;98277.81;4910491;29;20215;-90
2021/12/08 11:16:15;;;;;;;35.40;14.43;;;;;;;2.54;86.62;97784.63;4898282;29;20189;-90
2021/12/08 11:18:50;;;;;;;39.67;17.60;;;;;;;5.53;87.58;98310.34;4896672;29;20250;-90
2021/12/08 11:21:21;;;;;;;26.43;11.83;;;;;;;3.16;86.73;97892.56;4916017;29;20182;-90
2021/12/08 11:23:50;;;;;;;39.27;19.70;;;;;;;4.90;88.04;98175.31;4897537;29;20182;-88
2021/12/08 11:26:30;;;;;;;21.37;11.13;;;;;;;6.77;87.52;98457.50;4968608;23;20208;-90
2021/12/08 11:29:09;;;;;;;30.90;15.83;;;;;;;5.79;87.55;98269.69;4998260;28;20195;-92
2021/12/08 11:31:40;;;;;;;24.13;12.00;;;;;;;3.36;87.86;97881.00;4998613;28;20176;-88
2021/12/08 11:34:14;;;;;;;20.47;10.90;;;;;;;4.96;86.32;98163.06;4983559;28;20184;-91
2021/12/08 11:36:40;;;;;;;20.27;9.97;;;;;;;5.16;87.42;98183.25;4973536;28;20194;-88
2021/12/08 11:39:12;;;;;;;21.20;11.77;;;;;;;4.72;87.14;98152.78;4968483;28;20672;-90
2021/12/08 11:41:42;;;;;;;21.70;10.80;;;;;;;5.19;86.76;98218.47;4986199;28;20180;-91
2021/12/08 11:44:30;;;;;;;16.97;10.27;;;;;;;5.02;87.07;98174.25;4981005;28;20180;-88
2021/12/08 11:47:02;;;;;;;26.30;13.57;;;;;;;3.43;86.23;97918.03;4965993;28;20198;-89
2021/12/08 11:49:31;;;;;;;19.93;11.07;;;;;;;7.17;86.46;98545.59;4984397;28;20223;-89
2021/12/08 11:52:06;;;;;;;22.07;11.93;;;;;;;5.28;86.84;98218.03;4973841;28;20235;-89
2021/12/08 11:54:36;;;;;;;18.63;9.73;;;;;;;5.52;85.28;98243.38;4982683;28;20183;-89
2021/12/08 11:57:10;;;;;;;21.30;10.87;;;;;;;3.55;87.27;97909.47;4965234;28;20172;-90
2021/12/08 12:00:07;;;;;;;19.57;10.87;;;;;;;7.56;86.19;98549.81;4980422;28;20198;-90
2021/12/08 12:02:52;;;;;;;20.73;10.93;;;;;;;5.94;87.17;98300.53;4975053;28;20195;-92
2021/12/08 12:05:28;;;;;;;25.50;13.87;;;;;;;3.94;87.10;97912.06;4991822;28;20188;-93
2021/12/08 12:07:54;;;;;;;23.13;12.83;;;;;;;3.46;85.55;97873.16;4984789;28;20187;-90
2021/12/08 12:10:23;;;;;;;30.07;13.17;;;;;;;3.75;86.92;97932.03;4982013;28;20310;-89
2021/12/08 12:12:49;;;;;;;20.13;11.23;;;;;;;5.18;87.34;98191.69;4970565;28;20172;-89
2021/12/08 12:15:17;;;;;;;23.00;12.10;;;;;;;3.09;85.98;97849.72;4968593;28;20314;-92
2021/12/08 12:17:45;;;;;;;30.23;12.63;;;;;;;6.04;86.43;98342.00;4973572;28;20179;-88
2021/12/08 12:20:18;;;;;;;36.27;18.10;;;;;;;3.85;85.99;97956.69;4996353;28;20152;-90
2021/12/08 12:22:57;;;;;;;32.10;17.00;;;;;;;7.57;86.03;98564.13;5011789;28;20212;-88
2021/12/08 12:25:34;;;;;;;33.23;19.73;;;;;;;7.84;87.33;98568.56;4988444;28;20176;-89
2021/12/08 12:28:14;;;;;;;29.23;16.20;;;;;;;5.28;85.82;98135.25;4962806;28;20226;-88
2021/12/08 12:30:51;;;;;;;23.53;13.20;;;;;;;4.92;85.54;98086.84;4983166;28;20191;-90
2021/12/08 12:33:22;;;;;;;20.20;10.93;;;;;;;3.89;85.02;97904.38;4984065;28;20175;-91